Time;durP1;ratioP1;P1;durP2;ratioP2;P2;SDS_P1;SDS_P2;PMS_P1;PMS_P2;Temp;Humidity;BMP_temperature;BMP_pressure;BME280_temperature;BME280_humidity;BME280_pressure;Samples;Min_cycle;Max_cycle;Signal;HPM_P1;HPM_P2
2023/03/10 00:00:04;;;;;;;1.00;0.67;;;4.70;99.90;;;;;;5027925;28;20446;-78
2023/03/10 00:02:33;;;;;;;1.67;0.60;;;4.80;99.90;;;;;;5023177;28;20477;-78
2023/03/10 00:05:01;;;;;;;3.00;0.57;;;4.80;99.90;;;;;;5014944;28;20580;-78
2023/03/10 00:07:28;;;;;;;1.10;0.73;;;4.80;99.90;;;;;;5042027;28;20445;-78
2023/03/10 00:09:55;;;;;;;2.73;0.50;;;4.90;99.90;;;;;;5040240;28;20521;-78
2023/03/10 00:12:24;;;;;;;0.90;0.50;;;5.00;99.90;;;;;;5022215;28;20458;-78
2023/03/10 00:14:53;;;;;;;1.87;0.70;;;5.00;99.90;;;;;;5023051;28;20459;-78
2023/03/10 00:17:20;;;;;;;1.40;0.50;;;5.10;99.90;;;;;;5010887;28;20478;-78
2023/03/10 00:19:47;;;;;;;2.43;0.43;;;5.20;99.90;;;;;;5033515;28;20446;-78
2023/03/10 00:22:14;;;;;;;1.30;0.80;;;5.20;99.90;;;;;;5020900;28;20538;-78
2023/03/10 00:24:41;;;;;;;1.30;0.50;;;5.20;99.90;;;;;;5020949;28;20485;-78
2023/03/10 00:27:08;;;;;;;0.80;0.50;;;5.20;99.90;;;;;;5005601;28;20524;-78
2023/03/10 00:29:35;;;;;;;1.37;0.60;;;5.10;99.90;;;;;;5025072;28;20865;-78
2023/03/10 00:32:04;;;;;;;0.57;0.40;;;5.00;99.90;;;;;;5010591;28;20458;-78
2023/03/10 00:34:31;;;;;;;3.47;0.60;;;5.10;99.90;;;;;;5016583;28;20461;-78
2023/03/10 00:36:58;;;;;;;0.70;0.40;;;5.20;99.90;;;;;;5007140;28;20458;-78
2023/03/10 00:39:25;;;;;;;1.57;0.37;;;5.30;99.90;;;;;;5027617;28;20445;-79
2023/03/10 00:41:52;;;;;;;0.50;0.40;;;5.30;99.90;;;;;;5023438;28;20466;-78
2023/03/10 00:44:19;;;;;;;1.70;0.50;;;5.40;99.90;;;;;;5013185;28;20794;-78
2023/03/10 00:46:46;;;;;;;1.57;0.60;;;5.20;99.90;;;;;;5032989;27;20462;-79
2023/03/10 00:49:16;;;;;;;2.63;0.83;;;5.00;99.90;;;;;;5024629;28;20796;-79
2023/03/10 00:51:43;;;;;;;1.00;0.50;;;4.70;99.90;;;;;;5025153;28;20462;-79
2023/03/10 00:54:10;;;;;;;0.60;0.40;;;4.70;99.90;;;;;;5015776;28;20462;-78
2023/03/10 00:56:37;;;;;;;0.80;0.63;;;4.80;99.90;;;;;;5018568;28;20458;-78
2023/03/10 00:59:05;;;;;;;0.90;0.50;;;4.90;99.90;;;;;;5020492;27;20469;-78
2023/03/10 01:01:34;;;;;;;1.03;0.40;;;4.60;99.90;;;;;;5043365;27;20466;-78
2023/03/10 01:04:03;;;;;;;2.10;0.80;;;4.40;99.90;;;;;;5024437;27;20700;-78
2023/03/10 01:06:32;;;;;;;1.23;0.53;;;4.30;99.90;;;;;;5024744;28;20461;-78
2023/03/10 01:08:59;;;;;;;0.93;0.60;;;4.20;99.90;;;;;;5023245;28;20465;-78
2023/03/10 01:11:28;;;;;;;1.70;0.73;;;4.10;99.90;;;;;;5024299;28;20454;-78
2023/03/10 01:13:58;;;;;;;1.33;0.70;;;4.20;99.90;;;;;;5034899;28;20445;-77
2023/03/10 01:16:25;;;;;;;1.73;0.83;;;4.30;99.90;;;;;;5041740;28;20768;-78
2023/03/10 01:18:52;;;;;;;1.50;0.77;;;4.20;99.90;;;;;;5019531;28;20523;-78
2023/03/10 01:21:21;;;;;;;1.93;0.70;;;4.20;99.90;;;;;;5017121;28;20489;-77
2023/03/10 01:23:50;;;;;;;1.30;0.77;;;4.00;99.90;;;;;;5011255;28;20544;-78
2023/03/10 01:26:17;;;;;;;2.57;0.80;;;4.10;99.90;;;;;;5022102;28;20463;-78
2023/03/10 01:28:44;;;;;;;1.30;0.93;;;4.20;99.90;;;;;;5034264;28;20453;-78
2023/03/10 01:31:11;;;;;;;1.90;1.10;;;4.20;99.90;;;;;;5034701;27;20450;-78
2023/03/10 01:33:40;;;;;;;3.23;0.83;;;4.10;99.90;;;;;;5022669;28;20461;-78
2023/03/10 01:36:08;;;;;;;1.73;0.90;;;4.10;99.90;;;;;;5038122;28;20453;-78
2023/03/10 01:38:35;;;;;;;3.77;1.23;;;4.10;99.90;;;;;;5036206;28;20461;-78
2023/03/10 01:41:05;;;;;;;3.23;1.20;;;4.00;99.90;;;;;;5039421;28;20454;-78
2023/03/10 01:43:34;;;;;;;1.30;0.80;;;4.10;99.90;;;;;;5032974;28;20505;-77
2023/03/10 01:46:36;;;;;;;0.80;0.60;;;4.20;99.90;;;;;;5061243;27;20534;-78
2023/03/10 01:49:06;;;;;;;1.93;0.90;;;4.10;99.90;;;;;;5044494;27;20461;-78
2023/03/10 01:51:35;;;;;;;1.37;0.70;;;4.00;99.90;;;;;;5017205;28;20467;-78
2023/03/10 01:54:06;;;;;;;2.90;0.70;;;3.80;99.90;;;;;;5022271;28;20979;-80
2023/03/10 01:56:35;;;;;;;6.00;1.23;;;3.70;99.90;;;;;;5021724;28;20922;-79
2023/03/10 01:59:02;;;;;;;1.07;0.67;;;3.50;99.90;;;;;;5027256;28;20511;-79
2023/03/10 02:01:30;;;;;;;2.80;0.70;;;3.50;99.90;;;;;;5085523;27;20522;-78
2023/03/10 02:04:02;;;;;;;2.27;0.70;;;3.40;99.90;;;;;;5030901;27;20942;-78
2023/03/10 02:06:30;;;;;;;3.13;2.37;;;3.30;99.90;;;;;;5040682;28;20514;-78
2023/03/10 02:08:59;;;;;;;2.23;1.00;;;3.40;99.90;;;;;;5030199;28;20534;-78
2023/03/10 02:11:26;;;;;;;2.40;0.90;;;3.30;99.90;;;;;;5032251;28;20458;-78
2023/03/10 02:13:55;;;;;;;1.77;1.07;;;3.10;99.90;;;;;;5023002;28;20506;-78
2023/03/10 02:16:22;;;;;;;1.00;0.90;;;3.00;99.90;;;;;;5034637;28;20507;-78
2023/03/10 02:18:50;;;;;;;1.83;1.10;;;2.80;99.90;;;;;;5011230;28;20462;-78
2023/03/10 02:21:27;;;;;;;2.07;1.03;;;2.70;99.90;;;;;;5024944;28;20489;-78
2023/03/10 02:24:02;;;;;;;3.30;1.30;;;2.70;99.90;;;;;;5018488;28;20453;-78
2023/03/10 02:26:36;;;;;;;1.30;0.90;;;3.00;99.90;;;;;;5011274;28;20520;-78
2023/03/10 02:29:08;;;;;;;3.10;1.40;;;3.10;99.90;;;;;;5017676;28;21045;-78
2023/03/10 02:31:35;;;;;;;2.07;1.00;;;3.00;99.90;;;;;;5014953;28;20523;-78
2023/03/10 02:34:05;;;;;;;2.50;0.87;;;2.90;99.90;;;;;;5031119;28;20897;-78
2023/03/10 02:36:32;;;;;;;3.17;0.70;;;2.70;99.90;;;;;;5019189;28;20467;-78
2023/03/10 02:38:59;;;;;;;0.90;0.60;;;2.60;99.90;;;;;;5031508;28;20476;-77
2023/03/10 02:41:30;;;;;;;2.73;0.77;;;2.50;99.90;;;;;;5009650;28;20511;-78
2023/03/10 02:43:59;;;;;;;1.80;0.90;;;2.40;99.90;;;;;;5022076;28;20471;-77
2023/03/10 02:46:28;;;;;;;1.50;0.77;;;2.30;99.90;;;;;;5026423;28;20468;-77
2023/03/10 02:48:59;;;;;;;1.27;0.70;;;2.30;99.90;;;;;;5024745;28;20455;-77
2023/03/10 02:51:28;;;;;;;1.00;0.80;;;2.30;99.90;;;;;;5035904;28;20517;-77
2023/03/10 02:53:56;;;;;;;2.00;0.80;;;2.30;99.90;;;;;;5029401;28;20524;-77
2023/03/10 02:56:23;;;;;;;2.23;1.10;;;2.40;99.90;;;;;;5027783;28;20785;-77
2023/03/10 02:58:51;;;;;;;4.00;1.20;;;2.60;99.90;;;;;;5056204;28;20449;-77
2023/03/10 03:01:18;;;;;;;2.20;1.10;;;2.60;99.90;;;;;;5023293;28;20513;-77
2023/03/10 03:03:46;;;;;;;2.13;1.20;;;2.60;99.90;;;;;;5023149;28;20458;-78
2023/03/10 03:06:13;;;;;;;1.90;1.70;;;2.60;99.90;;;;;;5072494;27;20485;-78
2023/03/10 03:08:41;;;;;;;3.50;1.60;;;2.60;99.90;;;;;;5022666;28;20458;-77
2023/03/10 03:11:08;;;;;;;3.03;1.93;;;2.60;99.90;;;;;;5035346;28;20453;-77
2023/03/10 03:13:35;;;;;;;3.13;2.00;;;2.60;99.90;;;;;;5018752;28;20466;-77
2023/03/10 03:16:04;;;;;;;2.00;1.60;;;2.60;99.90;;;;;;5015683;28;20458;-77
2023/03/10 03:18:31;;;;;;;4.27;1.50;;;2.60;99.90;;;;;;5016535;28;20520;-77
2023/03/10 03:21:04;;;;;;;2.30;1.73;;;2.50;99.90;;;;;;5017108;28;20537;-78
2023/03/10 03:23:31;;;;;;;3.10;1.73;;;2.50;99.90;;;;;;5041938;28;21062;-77
2023/03/10 03:25:58;;;;;;;3.17;2.70;;;2.50;99.90;;;;;;5017490;28;21013;-78
2023/03/10 03:28:25;;;;;;;5.37;2.67;;;2.50;99.90;;;;;;5021262;28;20597;-78
2023/03/10 03:30:53;;;;;;;2.07;1.73;;;2.40;99.90;;;;;;5020579;28;20909;-77
2023/03/10 03:33:19;;;;;;;3.20;1.73;;;2.30;99.90;;;;;;5020748;28;21000;-77
2023/03/10 03:35:46;;;;;;;1.83;1.63;;;2.30;99.90;;;;;;5020861;28;20515;-77
2023/03/10 03:38:15;;;;;;;2.90;2.63;;;2.40;99.90;;;;;;5019190;28;20472;-77
2023/03/10 03:40:43;;;;;;;3.77;2.27;;;2.40;99.90;;;;;;5018382;27;20543;-77
2023/03/10 03:43:12;;;;;;;3.30;2.20;;;2.30;99.90;;;;;;5010354;28;20466;-77
2023/03/10 03:45:39;;;;;;;2.67;1.93;;;2.30;99.90;;;;;;5062882;27;20530;-78
2023/03/10 03:48:06;;;;;;;6.70;2.03;;;2.20;99.90;;;;;;5048709;27;20516;-77
2023/03/10 03:50:33;;;;;;;5.30;2.17;;;2.20;99.90;;;;;;5020806;28;20455;-78
2023/03/10 03:52:59;;;;;;;2.03;1.50;;;2.20;99.90;;;;;;5025045;27;20458;-77
2023/03/10 03:55:28;;;;;;;5.70;2.10;;;2.20;99.90;;;;;;5041693;27;20519;-77
2023/03/10 03:57:56;;;;;;;2.83;2.07;;;2.10;99.90;;;;;;5037522;27;20461;-77
2023/03/10 04:00:25;;;;;;;3.40;1.97;;;2.10;99.90;;;;;;5034313;27;20465;-77
2023/03/10 04:02:52;;;;;;;4.63;2.70;;;2.10;99.90;;;;;;5026550;28;20462;-78
2023/03/10 04:05:19;;;;;;;2.67;2.27;;;2.10;99.90;;;;;;5049000;27;20542;-78
2023/03/10 04:07:48;;;;;;;3.60;2.40;;;2.10;99.90;;;;;;5042238;27;20466;-77
2023/03/10 04:10:18;;;;;;;4.57;2.50;;;2.10;99.90;;;;;;5020931;28;20988;-77
2023/03/10 04:12:47;;;;;;;3.40;2.00;;;2.10;99.90;;;;;;5023790;28;20538;-77
2023/03/10 04:15:14;;;;;;;4.33;4.03;;;2.10;99.90;;;;;;5021256;28;21078;-77
2023/03/10 04:17:41;;;;;;;3.30;2.43;;;2.10;99.90;;;;;;5018332;28;20469;-77
2023/03/10 04:20:12;;;;;;;5.00;1.87;;;2.00;99.90;;;;;;5037951;28;20509;-77
2023/03/10 04:22:39;;;;;;;2.37;2.17;;;2.00;99.90;;;;;;5032385;28;20815;-77
2023/03/10 04:25:07;;;;;;;3.93;2.37;;;1.90;99.90;;;;;;5029496;28;20872;-77
2023/03/10 04:27:34;;;;;;;3.57;2.20;;;1.90;99.90;;;;;;5036285;28;20784;-77
2023/03/10 04:30:03;;;;;;;3.33;2.57;;;1.90;99.90;;;;;;5041745;28;20462;-77
2023/03/10 04:32:31;;;;;;;4.00;1.30;;;1.80;99.90;;;;;;5030251;28;20518;-77
2023/03/10 04:34:58;;;;;;;5.17;2.20;;;1.60;99.90;;;;;;5032052;28;21426;-77
2023/03/10 04:37:26;;;;;;;2.60;1.17;;;1.50;99.90;;;;;;5018006;28;20537;-77
2023/03/10 04:39:53;;;;;;;1.50;1.37;;;1.30;99.90;;;;;;5027081;28;20454;-77
2023/03/10 04:42:19;;;;;;;4.83;1.77;;;1.30;99.90;;;;;;5025133;28;20453;-77
2023/03/10 04:44:46;;;;;;;1.60;0.97;;;1.20;99.90;;;;;;5034049;28;20547;-78
2023/03/10 04:47:15;;;;;;;3.80;1.20;;;1.20;99.90;;;;;;5064950;28;20786;-77
2023/03/10 04:49:42;;;;;;;3.80;3.40;;;1.20;99.90;;;;;;5049254;28;20512;-77
2023/03/10 04:52:09;;;;;;;2.33;1.50;;;1.10;99.90;;;;;;5014036;28;20548;-77
2023/03/10 04:54:36;;;;;;;1.47;1.37;;;1.20;99.90;;;;;;5029021;28;21059;-77
2023/03/10 04:57:03;;;;;;;2.60;1.90;;;1.30;99.90;;;;;;5019725;28;20523;-77
2023/03/10 04:59:30;;;;;;;2.40;1.00;;;1.40;99.90;;;;;;5038295;28;20585;-77
2023/03/10 05:01:57;;;;;;;2.73;1.17;;;1.50;99.90;;;;;;5052597;28;20465;-77
2023/03/10 05:04:25;;;;;;;2.30;0.97;;;1.60;99.90;;;;;;5017252;28;20462;-77
2023/03/10 05:06:52;;;;;;;1.50;0.90;;;1.60;99.90;;;;;;5036574;28;20481;-77
2023/03/10 05:09:19;;;;;;;1.60;1.07;;;1.50;99.90;;;;;;5019888;28;21035;-77
2023/03/10 05:11:47;;;;;;;1.53;0.70;;;1.50;99.90;;;;;;5033298;28;20527;-76
2023/03/10 05:14:14;;;;;;;1.03;0.57;;;1.30;99.90;;;;;;5018714;28;20506;-76
2023/03/10 05:16:41;;;;;;;2.70;0.60;;;1.40;99.90;;;;;;5025679;28;20449;-77
2023/03/10 05:19:08;;;;;;;2.10;0.63;;;1.30;99.90;;;;;;5025921;28;20502;-77
2023/03/10 05:21:37;;;;;;;0.77;0.60;;;1.30;99.90;;;;;;5021422;28;21601;-77
2023/03/10 05:24:04;;;;;;;0.57;0.57;;;1.50;99.90;;;;;;5020076;28;20966;-76
2023/03/10 05:26:31;;;;;;;0.80;0.80;;;1.50;99.90;;;;;;5020655;28;20487;-77
2023/03/10 05:28:58;;;;;;;2.70;0.70;;;1.70;99.90;;;;;;5018934;28;20461;-76
2023/03/10 05:31:25;;;;;;;2.23;1.30;;;1.70;99.90;;;;;;5030418;28;20522;-76
2023/03/10 05:33:53;;;;;;;2.50;2.30;;;1.70;99.90;;;;;;5022861;28;20903;-76
2023/03/10 05:36:21;;;;;;;2.40;2.10;;;1.70;99.90;;;;;;5028299;28;20802;-77
2023/03/10 05:38:50;;;;;;;3.07;1.30;;;1.80;99.90;;;;;;5077802;27;20452;-76
2023/03/10 05:41:17;;;;;;;0.90;0.70;;;1.90;99.90;;;;;;5024003;28;20466;-76
2023/03/10 05:43:44;;;;;;;2.17;0.93;;;1.90;99.90;;;;;;5019503;28;20831;-76
2023/03/10 05:46:11;;;;;;;4.27;3.03;;;1.80;99.90;;;;;;5063480;27;20485;-77
2023/03/10 05:48:38;;;;;;;5.73;3.50;;;1.90;99.90;;;;;;5017008;28;20528;-77
2023/03/10 05:51:06;;;;;;;12.77;7.47;;;2.00;99.90;;;;;;5021693;28;20514;-77
2023/03/10 05:53:35;;;;;;;35.40;18.13;;;2.00;99.90;;;;;;5020831;28;20511;-77
2023/03/10 05:56:07;;;;;;;28.30;14.20;;;2.00;99.90;;;;;;5013635;28;20453;-76
2023/03/10 05:58:34;;;;;;;34.97;15.30;;;2.00;99.90;;;;;;5030754;27;20496;-77
2023/03/10 06:01:02;;;;;;;37.90;12.10;;;2.10;99.90;;;;;;5016053;28;21122;-77
2023/03/10 06:03:29;;;;;;;1.83;1.00;;;2.10;99.90;;;;;;5028876;27;20461;-77
2023/03/10 06:05:56;;;;;;;0.87;0.50;;;2.20;99.90;;;;;;5018630;28;20500;-77
2023/03/10 06:08:23;;;;;;;1.30;0.90;;;2.20;99.90;;;;;;5013894;28;20470;-77
2023/03/10 06:10:51;;;;;;;8.10;3.10;;;2.30;99.90;;;;;;5014957;28;20467;-77
2023/03/10 06:13:19;;;;;;;3.70;1.80;;;2.30;99.90;;;;;;5028961;28;20531;-77
2023/03/10 06:15:49;;;;;;;1.70;1.60;;;2.30;99.90;;;;;;5021438;28;20489;-76
2023/03/10 06:18:17;;;;;;;6.73;2.20;;;2.40;99.90;;;;;;5018401;28;20497;-76
2023/03/10 06:20:44;;;;;;;1.53;1.43;;;2.40;99.90;;;;;;5017204;28;20474;-75
2023/03/10 06:23:11;;;;;;;1.87;0.80;;;2.50;99.90;;;;;;5012458;27;20494;-76
2023/03/10 06:25:38;;;;;;;7.30;1.33;;;2.60;99.90;;;;;;5031531;28;20833;-76
2023/03/10 06:28:06;;;;;;;6.93;0.80;;;2.70;99.90;;;;;;5020256;28;20901;-76
2023/03/10 06:30:34;;;;;;;1.10;1.00;;;2.80;99.90;;;;;;5024564;28;20466;-75
2023/03/10 06:33:02;;;;;;;2.90;0.80;;;2.90;99.90;;;;;;5026541;28;20454;-75
2023/03/10 06:35:29;;;;;;;0.80;0.60;;;2.90;99.90;;;;;;5023732;28;20789;-75
2023/03/10 06:37:56;;;;;;;2.10;0.97;;;3.10;99.90;;;;;;5021270;28;20462;-75
2023/03/10 06:40:23;;;;;;;0.80;0.77;;;3.20;99.90;;;;;;5014901;28;20777;-75
2023/03/10 06:42:50;;;;;;;2.63;0.80;;;3.30;99.90;;;;;;5017574;28;20462;-75
2023/03/10 06:45:17;;;;;;;4.30;1.33;;;3.40;99.90;;;;;;5020792;27;20836;-75
2023/03/10 06:47:46;;;;;;;1.23;0.80;;;3.60;99.90;;;;;;5020351;27;20546;-75
2023/03/10 06:50:13;;;;;;;5.73;2.57;;;3.80;99.90;;;;;;5019283;28;20473;-75
2023/03/10 06:52:41;;;;;;;2.33;1.33;;;3.90;99.90;;;;;;5020064;28;20514;-75
2023/03/10 06:55:09;;;;;;;2.60;0.93;;;3.90;99.90;;;;;;5020987;28;20964;-76
2023/03/10 06:57:36;;;;;;;2.43;1.30;;;4.00;99.90;;;;;;5021156;28;20473;-76
2023/03/10 07:00:06;;;;;;;3.03;1.90;;;4.20;99.90;;;;;;5012095;28;20450;-76
2023/03/10 07:02:33;;;;;;;2.10;1.70;;;4.10;99.90;;;;;;5017728;28;20597;-76
2023/03/10 07:05:01;;;;;;;45.73;30.13;;;4.10;99.90;;;;;;5043797;27;20491;-77
2023/03/10 07:07:28;;;;;;;7.60;5.47;;;4.20;99.90;;;;;;5039194;27;20490;-77
2023/03/10 07:09:56;;;;;;;2.70;1.00;;;4.30;99.90;;;;;;5025457;27;20874;-77
2023/03/10 07:12:23;;;;;;;2.13;1.93;;;4.50;99.90;;;;;;5019387;27;21140;-76
2023/03/10 07:14:51;;;;;;;1.63;0.97;;;4.60;99.90;;;;;;5022096;28;20454;-79
2023/03/10 07:17:18;;;;;;;3.23;1.63;;;4.90;99.90;;;;;;5019475;28;20811;-79
2023/03/10 07:19:45;;;;;;;4.40;1.83;;;5.00;99.90;;;;;;5009521;28;20451;-79
2023/03/10 07:22:13;;;;;;;2.73;1.70;;;5.20;99.90;;;;;;5018554;28;21047;-79
2023/03/10 07:24:40;;;;;;;4.07;2.43;;;5.30;99.90;;;;;;5022562;28;20473;-76
2023/03/10 07:27:07;;;;;;;3.87;2.10;;;5.50;99.90;;;;;;5022945;28;20969;-77
2023/03/10 07:29:34;;;;;;;2.60;2.07;;;5.50;99.90;;;;;;5028607;28;20904;-77
2023/03/10 07:32:02;;;;;;;7.80;3.70;;;5.70;99.90;;;;;;5020933;28;20447;-77
2023/03/10 07:34:28;;;;;;;1.57;1.47;;;6.00;99.90;;;;;;5005955;28;20463;-76
2023/03/10 07:36:55;;;;;;;2.30;1.40;;;6.20;99.90;;;;;;5020272;28;20495;-77
2023/03/10 07:39:24;;;;;;;1.63;1.20;;;6.30;99.90;;;;;;5016197;28;20515;-77
2023/03/10 07:41:51;;;;;;;3.20;1.50;;;6.40;99.90;;;;;;5046417;28;20449;-77
2023/03/10 07:44:18;;;;;;;2.20;1.40;;;6.50;99.90;;;;;;5021183;28;20527;-77
2023/03/10 07:46:45;;;;;;;1.77;1.67;;;6.60;99.90;;;;;;5015192;28;20502;-78
2023/03/10 07:49:12;;;;;;;2.17;1.40;;;6.60;99.90;;;;;;5019479;28;20465;-78
2023/03/10 07:51:39;;;;;;;4.13;2.03;;;6.50;99.90;;;;;;5021531;28;20507;-77
2023/03/10 07:54:06;;;;;;;1.97;1.63;;;6.40;99.90;;;;;;5019085;28;20462;-77
2023/03/10 07:56:34;;;;;;;1.97;1.13;;;6.40;99.90;;;;;;5020230;28;20446;-77
2023/03/10 07:59:01;;;;;;;2.17;1.97;;;6.60;99.90;;;;;;5019102;28;20516;-77
2023/03/10 08:01:28;;;;;;;3.00;2.60;;;6.70;99.90;;;;;;5011555;28;20462;-77
2023/03/10 08:03:55;;;;;;;5.30;2.00;;;6.90;99.90;;;;;;5016192;28;20516;-77
2023/03/10 08:06:24;;;;;;;2.07;1.00;;;7.20;99.90;;;;;;5038866;28;20489;-78
2023/03/10 08:08:52;;;;;;;2.63;1.67;;;7.50;99.90;;;;;;5029973;28;20447;-77
2023/03/10 08:11:20;;;;;;;3.50;1.77;;;7.40;99.90;;;;;;5024217;28;20865;-77
2023/03/10 08:13:48;;;;;;;1.93;1.83;;;7.50;99.90;;;;;;5021124;28;20506;-76
2023/03/10 08:16:17;;;;;;;2.40;1.80;;;7.60;99.90;;;;;;5028957;28;20475;-77
2023/03/10 08:18:44;;;;;;;2.30;1.67;;;7.70;99.90;;;;;;5027350;28;20454;-77
2023/03/10 08:21:11;;;;;;;5.67;2.10;;;8.00;99.90;;;;;;5025283;28;20807;-78
2023/03/10 08:23:39;;;;;;;3.90;3.53;;;8.20;99.90;;;;;;5014324;28;20522;-77
2023/03/10 08:26:09;;;;;;;2.60;1.80;;;8.00;99.90;;;;;;5031290;28;20488;-77
2023/03/10 08:28:37;;;;;;;1.47;1.37;;;8.20;99.90;;;;;;5012763;28;20942;-77
2023/03/10 08:31:09;;;;;;;3.90;1.83;;;8.30;99.90;;;;;;5029805;28;20466;-77
2023/03/10 08:33:36;;;;;;;2.23;2.00;;;8.40;99.90;;;;;;5021034;28;20526;-77
2023/03/10 08:36:08;;;;;;;2.70;1.37;;;8.30;99.90;;;;;;5024411;28;20461;-77
2023/03/10 08:38:35;;;;;;;1.77;1.67;;;8.40;99.90;;;;;;5037443;28;20822;-77
2023/03/10 08:41:11;;;;;;;4.43;1.30;;;8.30;99.90;;;;;;5028772;28;20900;-77
2023/03/10 08:43:38;;;;;;;1.30;1.20;;;8.50;99.90;;;;;;5041460;28;21944;-77
2023/03/10 08:46:08;;;;;;;1.63;1.53;;;8.50;99.90;;;;;;5020751;28;20526;-77
2023/03/10 08:48:35;;;;;;;1.83;1.37;;;8.70;99.90;;;;;;5026528;28;20921;-77
2023/03/10 08:51:02;;;;;;;2.93;1.43;;;8.80;99.90;;;;;;5038800;28;20453;-77
2023/03/10 08:53:30;;;;;;;2.60;1.60;;;8.90;99.90;;;;;;5032344;28;20470;-77
2023/03/10 08:55:57;;;;;;;1.33;1.23;;;9.10;99.90;;;;;;5027725;28;20445;-77
2023/03/10 08:58:24;;;;;;;1.70;1.00;;;9.00;99.90;;;;;;5026788;28;20466;-77
2023/03/10 09:00:52;;;;;;;2.60;0.80;;;8.90;99.90;;;;;;5029297;28;20464;-77
2023/03/10 09:03:20;;;;;;;1.87;0.70;;;9.10;99.90;;;;;;5022930;28;20450;-77
2023/03/10 09:05:47;;;;;;;1.23;0.83;;;9.20;99.90;;;;;;5017492;28;20553;-77
2023/03/10 09:08:14;;;;;;;5.23;0.93;;;9.30;99.90;;;;;;5034934;28;20485;-77
2023/03/10 09:10:43;;;;;;;4.13;0.90;;;9.10;99.90;;;;;;5045108;28;20501;-77
2023/03/10 09:13:11;;;;;;;2.03;0.90;;;9.00;99.90;;;;;;5027496;28;20545;-77
2023/03/10 09:15:40;;;;;;;1.53;1.40;;;9.00;99.90;;;;;;5033367;28;20438;-78
2023/03/10 09:18:07;;;;;;;3.33;1.27;;;9.00;99.90;;;;;;5029239;28;20453;-78
2023/03/10 09:20:36;;;;;;;2.30;1.43;;;9.00;99.90;;;;;;5050636;27;20725;-77
2023/03/10 09:23:03;;;;;;;1.37;0.90;;;8.90;99.90;;;;;;5054361;27;20481;-77
2023/03/10 09:25:31;;;;;;;1.93;0.93;;;9.10;99.90;;;;;;5038021;28;20475;-77
2023/03/10 09:27:58;;;;;;;1.03;0.93;;;9.20;99.90;;;;;;5042459;28;20556;-77
2023/03/10 09:30:25;;;;;;;1.10;0.90;;;9.30;99.90;;;;;;5015696;28;20465;-77
2023/03/10 09:32:53;;;;;;;2.20;0.80;;;9.30;99.90;;;;;;5024881;28;21001;-77
2023/03/10 09:35:20;;;;;;;1.10;0.70;;;9.30;99.90;;;;;;5032591;28;20473;-77
2023/03/10 09:37:49;;;;;;;6.43;1.00;;;9.40;99.90;;;;;;5026877;28;20466;-77
2023/03/10 09:40:19;;;;;;;2.00;0.97;;;9.40;99.90;;;;;;5036958;28;20486;-77
2023/03/10 09:42:46;;;;;;;1.30;1.20;;;9.50;99.90;;;;;;5038865;28;20470;-77
2023/03/10 09:45:26;;;;;;;2.10;1.03;;;9.40;99.90;;;;;;5038961;27;20449;-77
2023/03/10 09:48:08;;;;;;;1.53;0.70;;;9.60;99.90;;;;;;5025403;28;20902;-78
2023/03/10 09:50:42;;;;;;;0.90;0.80;;;9.70;99.90;;;;;;5042074;28;20441;-78
2023/03/10 09:53:25;;;;;;;1.20;0.80;;;9.80;99.90;;;;;;5028654;28;20461;-78
2023/03/10 09:55:53;;;;;;;1.30;1.00;;;9.90;99.90;;;;;;5032420;27;20457;-78
2023/03/10 09:58:30;;;;;;;2.53;0.90;;;10.10;99.90;;;;;;5016504;28;20450;-78
2023/03/10 10:00:59;;;;;;;2.47;1.03;;;10.30;99.90;;;;;;5015709;28;20610;-77
2023/03/10 10:03:33;;;;;;;1.27;1.17;;;10.40;99.90;;;;;;5012722;28;20462;-78
2023/03/10 10:06:02;;;;;;;7.63;0.83;;;10.50;99.90;;;;;;5026054;28;20989;-78
2023/03/10 10:08:41;;;;;;;5.13;1.40;;;10.40;99.90;;;;;;5020700;28;20490;-78
2023/03/10 10:11:14;;;;;;;3.67;0.93;;;10.70;99.90;;;;;;5026703;28;20957;-78
2023/03/10 10:13:43;;;;;;;4.87;1.33;;;10.80;99.90;;;;;;5023101;28;20470;-78
2023/03/10 10:16:21;;;;;;;1.63;1.00;;;11.00;99.90;;;;;;5038577;27;20450;-78
2023/03/10 10:18:55;;;;;;;2.83;0.93;;;11.00;99.90;;;;;;5024372;28;20531;-78
2023/03/10 10:21:31;;;;;;;4.17;2.10;;;11.10;99.90;;;;;;5039753;27;20996;-78
2023/03/10 10:24:00;;;;;;;4.40;1.40;;;11.10;99.90;;;;;;5049607;27;20908;-77
2023/03/10 10:26:28;;;;;;;2.30;1.00;;;11.20;99.90;;;;;;5035690;27;20916;-78
2023/03/10 10:28:56;;;;;;;1.40;1.00;;;11.30;99.90;;;;;;5023841;27;20925;-78
2023/03/10 10:31:26;;;;;;;1.53;1.00;;;11.40;99.90;;;;;;5016480;28;20467;-77
2023/03/10 10:33:57;;;;;;;1.97;0.80;;;11.40;99.90;;;;;;5040047;28;20451;-78
2023/03/10 10:36:25;;;;;;;1.40;1.00;;;11.40;99.90;;;;;;5046197;28;20781;-78
2023/03/10 10:38:54;;;;;;;5.10;1.10;;;11.40;99.90;;;;;;5020975;28;20457;-78
2023/03/10 10:41:26;;;;;;;1.17;0.90;;;11.30;99.90;;;;;;5020807;28;20483;-78
2023/03/10 10:43:58;;;;;;;1.70;0.97;;;11.40;99.90;;;;;;5042088;27;20510;-78
2023/03/10 10:46:28;;;;;;;1.77;1.00;;;11.50;99.90;;;;;;5086155;27;21009;-80
2023/03/10 10:49:07;;;;;;;1.87;0.60;;;11.30;99.90;;;;;;5018454;28;20469;-78
2023/03/10 10:51:37;;;;;;;3.20;2.97;;;11.20;99.90;;;;;;5014685;28;20458;-79
2023/03/10 10:54:21;;;;;;;6.10;1.50;;;11.10;99.90;;;;;;5022352;28;20970;-78
2023/03/10 10:56:57;;;;;;;1.33;0.77;;;11.20;99.90;;;;;;5014791;28;20854;-78
2023/03/10 10:59:29;;;;;;;1.20;0.70;;;11.10;99.90;;;;;;5023912;28;20448;-78
2023/03/10 11:01:58;;;;;;;0.80;0.77;;;11.20;99.90;;;;;;5021191;28;20466;-78
2023/03/10 11:04:26;;;;;;;1.30;0.80;;;11.30;99.90;;;;;;5022850;27;20821;-78
2023/03/10 11:07:09;;;;;;;1.23;0.80;;;11.50;99.60;;;;;;5018794;28;21018;-78
2023/03/10 11:09:37;;;;;;;2.27;1.47;;;11.60;99.90;;;;;;5017236;28;20469;-78
2023/03/10 11:12:16;;;;;;;2.90;1.00;;;11.60;99.30;;;;;;5032111;28;20565;-78
2023/03/10 11:14:53;;;;;;;0.60;0.60;;;11.70;99.60;;;;;;5036012;28;20458;-78
2023/03/10 11:17:26;;;;;;;0.97;0.90;;;11.50;99.40;;;;;;5021318;27;20924;-78
2023/03/10 11:19:59;;;;;;;3.90;1.03;;;11.70;98.60;;;;;;5039178;27;20453;-78
2023/03/10 11:22:39;;;;;;;2.03;0.67;;;11.60;98.60;;;;;;5033679;27;20501;-79
2023/03/10 11:25:17;;;;;;;1.33;0.60;;;11.50;99.30;;;;;;5021377;28;20466;-78
2023/03/10 11:27:53;;;;;;;3.80;0.90;;;11.40;99.10;;;;;;5019912;28;20562;-78
2023/03/10 11:30:30;;;;;;;2.23;0.60;;;11.50;99.00;;;;;;5021277;27;20739;-78
2023/03/10 11:33:13;;;;;;;1.87;0.63;;;11.70;98.90;;;;;;5051667;28;20457;-78
2023/03/10 11:35:44;;;;;;;1.80;0.80;;;12.00;98.60;;;;;;5016931;28;20546;-78
2023/03/10 11:38:27;;;;;;;1.20;0.60;;;12.10;98.40;;;;;;5023815;28;20533;-77
2023/03/10 11:40:55;;;;;;;2.00;0.60;;;12.20;99.00;;;;;;5023634;28;20457;-78
2023/03/10 11:43:32;;;;;;;1.97;0.60;;;12.30;98.30;;;;;;5010900;28;20466;-78
2023/03/10 11:46:04;;;;;;;1.97;0.80;;;12.30;98.10;;;;;;5057910;27;21212;-78
2023/03/10 11:48:47;;;;;;;2.80;0.80;;;12.60;97.60;;;;;;5012113;28;20482;-79
2023/03/10 11:51:20;;;;;;;0.60;0.60;;;12.80;97.30;;;;;;5021693;28;20529;-79
2023/03/10 11:53:50;;;;;;;1.70;0.60;;;13.10;96.00;;;;;;5033134;27;21012;-79
2023/03/10 11:56:19;;;;;;;1.03;0.60;;;13.10;97.20;;;;;;5040429;27;20509;-79
2023/03/10 11:58:52;;;;;;;1.47;0.90;;;12.80;98.70;;;;;;5043062;27;20450;-78
2023/03/10 12:01:24;;;;;;;1.70;0.70;;;12.50;98.90;;;;;;5023473;28;20905;-78
2023/03/10 12:03:58;;;;;;;1.17;0.70;;;12.30;97.40;;;;;;5038125;27;20540;-78
2023/03/10 12:06:32;;;;;;;1.57;1.10;;;12.30;99.20;;;;;;5043067;27;20540;-78
2023/03/10 12:08:59;;;;;;;2.13;0.70;;;12.30;99.50;;;;;;5063415;27;20565;-78
2023/03/10 12:11:28;;;;;;;1.10;0.70;;;12.50;98.00;;;;;;5040224;27;20473;-79
2023/03/10 12:14:00;;;;;;;1.70;0.97;;;12.60;98.50;;;;;;5022654;28;20462;-78
2023/03/10 12:16:29;;;;;;;2.23;0.60;;;12.60;98.50;;;;;;5018031;28;20500;-79
2023/03/10 12:18:56;;;;;;;1.77;0.90;;;12.60;97.50;;;;;;5019795;28;20551;-79
2023/03/10 12:21:25;;;;;;;1.20;0.97;;;12.80;98.00;;;;;;5024672;27;20534;-78
2023/03/10 12:23:54;;;;;;;1.30;0.83;;;12.60;97.10;;;;;;5020731;28;20543;-78
2023/03/10 12:26:59;;;;;;;1.60;0.80;;;12.40;99.00;;;;;;5048609;28;20460;-79
2023/03/10 12:29:39;;;;;;;3.47;1.33;;;12.50;97.40;;;;;;5051391;28;20506;-79
2023/03/10 12:32:29;;;;;;;2.27;0.80;;;12.50;97.40;;;;;;5014394;28;20542;-78
2023/03/10 12:35:29;;;;;;;1.63;0.87;;;12.70;97.90;;;;;;5021121;28;20538;-78
2023/03/10 12:38:41;;;;;;;3.40;1.37;;;12.50;97.90;;;;;;5031207;28;21094;-78
2023/03/10 12:41:10;;;;;;;1.17;1.07;;;12.20;98.60;;;;;;5055677;28;20456;-78
2023/03/10 12:43:53;;;;;;;1.87;0.80;;;12.40;99.00;;;;;;5032181;27;20999;-78
2023/03/10 12:46:38;;;;;;;1.40;0.57;;;12.40;98.40;;;;;;5084872;27;20504;-79
2023/03/10 12:49:27;;;;;;;0.90;0.70;;;12.60;98.00;;;;;;5025385;27;20522;-79
2023/03/10 12:51:58;;;;;;;1.00;0.70;;;12.50;98.80;;;;;;5043605;27;20469;-79
2023/03/10 12:54:44;;;;;;;1.77;0.70;;;12.80;98.60;;;;;;5023851;28;20757;-78
2023/03/10 12:57:19;;;;;;;2.77;1.17;;;12.60;97.60;;;;;;5015972;28;20526;-78
2023/03/10 12:59:55;;;;;;;1.80;1.10;;;12.70;97.80;;;;;;5027447;28;20469;-81
2023/03/10 13:02:28;;;;;;;1.00;0.60;;;12.90;98.10;;;;;;5023331;28;20985;-81
2023/03/10 13:05:00;;;;;;;2.77;1.00;;;13.20;97.80;;;;;;5041635;27;20470;-81
2023/03/10 13:07:29;;;;;;;2.10;0.60;;;13.30;97.10;;;;;;5021065;28;20522;-79